Weather observations for the past three days for
Georgetown County Airport
Imperial (Metric)
Date Time (edt) Wind (mph) Vis. (mi.) Weather Sky Cond. Temperature (ºF) Relative Humidity Wind Chill (°F) Heat Index (°F) Pressure Precipitation (in)
Air Dwpt 6 hour altimeter (in) sea level (mb) 1 hr 3 hr 6 hr
Max. Min.
05 23:15 SW 3 0.00 Mostly Cloudy BKN016 78.8 78.8 100% 83 29.88 0.0
05 22:55 Calm 0.00 NULL NULL 78.8 78.8 100% 83 29.87 0.0
05 22:35 Calm 0.00 Thunderstorm in Vicinity NULL 78.8 78.8 100% 83 29.86 0.0
05 22:15 E 5 0.00 NULL NULL 78.8 78.8 100% 83 29.85 0.0
05 21:55 Calm 0.00 NULL NULL 80.6 78.8 94% 88 29.85 0.0
05 21:35 Calm 0.00 NULL NULL 80.6 80.6 100% 89 29.85 0.0
05 21:15 W 5 0.00 NULL NULL 80.6 80.6 100% 89 29.85 0.0
05 20:55 SW 7 0.00 NULL NULL 80.6 80.6 100% 89 29.84 0.0
05 20:35 SW 6 0.00 NULL NULL 80.6 80.6 100% 89 29.85 0.0
05 20:15 S 5 0.00 NULL NULL 82.4 78.8 89% 92 29.85 0.0
05 19:55 S 6 0.00 NULL NULL 82.4 78.8 89% 92 29.85 0.0
05 19:35 S 6 0.00 NULL NULL 82.4 78.8 89% 92 29.85 0.0
05 19:15 S 9 0.00 Thunderstorm in Vicinity NULL 82.4 78.8 89% 92 29.86 0.0
05 18:55 S 8 0.00 NULL NULL 82.4 78.8 89% 92 29.84 0.0
05 18:35 S 9 0.00 Fair CLR 84.2 78.8 84% 96 29.85 0.0
05 18:15 S 13 G 17 0.00 Fair CLR 86 78.8 79% 99 29.83 0.0
05 17:55 S 12 G 17 0.00 Fair CLR 89.6 78.8 71% 105 29.83 0.0
05 17:35 S 12 0.00 Fair CLR 89.6 78.8 71% 105 29.83 0.0
05 17:15 S 9 0.00 Fair CLR 91.4 78.8 67% 108 29.82 0.0
05 16:55 Calm 0.00 Partly Cloudy SCT050 91.4 75.2 59% 103 29.83 0.0
05 16:35 S 5 0.00 Fair CLR 95 73.4 50% 105 29.82 0.0
05 16:15 S 5 0.00 Fair CLR 93.2 73.4 53% 103 29.82 0.0
05 15:55 Calm 0.00 Fair CLR 95 73.4 50% 105 29.82 0.0
05 13:55 SW 6 0.00 Partly Cloudy SCT039 91.4 73.4 56% 100 29.88 0.0
05 13:35 W 3 0.00 Partly Cloudy SCT037 89.6 73.4 59% 98 29.89 0.0
05 13:15 SW 3 0.00 Partly Cloudy SCT037 89.6 75.2 63% 100 29.89 0.0
05 12:55 Calm 0.00 Fair CLR 89.6 73.4 59% 98 29.9 0.0
05 12:35 W 8 0.00 Partly Cloudy SCT033 89.6 73.4 59% 98 29.91 0.0
05 12:15 W 8 0.00 Partly Cloudy SCT029 89.6 75.2 63% 100 29.92 0.0
05 11:55 W 7 0.00 Fair CLR 87.8 77 70% 100 29.93 0.0
05 11:35 NW 6 0.00 Partly Cloudy SCT027 87.8 77 70% 100 29.94 0.0
05 11:15 W 7 0.00 Fair CLR 86 77 75% 97 29.94 0.0
05 10:55 W 5 0.00 Fair CLR 86 77 75% 97 29.94 0.0
05 10:35 W 6 0.00 Fair CLR 86 77 75% 97 29.94 0.0
05 10:15 W 7 0.00 Partly Cloudy SCT017 84.2 77 79% 94 29.95 0.0
05 09:55 W 7 0.00 Partly Cloudy SCT015 82.4 77 84% 91 29.95 0.0
05 09:35 W 7 0.00 NULL NULL 82.4 78.8 89% 92 29.95 0.0
05 09:15 W 7 0.00 NULL NULL 80.6 78.8 94% 88 29.95 0.0
05 08:55 W 5 0.00 NULL NULL 80.6 78.8 94% 88 29.95 0.0
05 08:35 W 7 0.00 NULL NULL 78.8 78.8 100% 83 29.95 0.0
05 08:15 W 6 0.00 NULL NULL 77 77 100% 78 29.95 0.0
05 07:55 W 5 0.00 NULL NULL 77 75.2 94% 78 29.95 0.0
05 07:35 W 3 0.00 NULL NULL 75.2 73.4 94% 74 29.95 0.0
05 07:15 W 3 0.00 NULL NULL 75.2 73.4 94% 74 29.94 0.0
05 06:55 W 3 0.00 NULL NULL 75.2 73.4 94% 74 29.94 0.0
05 06:35 W 5 0.00 NULL NULL 75.2 73.4 94% 74 29.94 0.0
05 06:15 Calm 0.00 NULL NULL 75.2 73.4 94% 74 29.93 0.0
05 05:55 W 6 0.00 NULL NULL 75.2 75.2 100% 73 29.92 0.0
05 05:35 W 6 0.00 NULL NULL 75.2 73.4 94% 74 29.93 0.0
05 05:15 SW 3 0.00 NULL NULL 75.2 75.2 100% 73 29.93 0.0
05 04:55 W 3 0.00 NULL NULL 77 75.2 94% 78 29.94 0.0
05 04:35 W 5 0.00 NULL NULL 77 75.2 94% 78 29.93 0.0
05 04:15 W 3 0.00 NULL NULL 75.2 73.4 94% 74 29.93 0.0
05 03:55 SW 5 0.00 NULL NULL 73.4 73.4 100% 29.93 0.0
05 03:35 SW 3 0.00 NULL NULL 73.4 73.4 100% 29.94 0.0
05 03:15 Calm 0.00 NULL NULL 75.2 73.4 94% 74 29.94 0.0
05 02:55 Calm 0.00 NULL NULL 73.4 73.4 100% 29.94 0.0
05 02:35 SW 3 0.00 NULL NULL 75.2 73.4 94% 74 29.94 0.0
05 02:15 Calm 0.00 NULL NULL 75.2 73.4 94% 74 29.95 0.0
05 01:55 SW 5 0.00 NULL NULL 75.2 73.4 94% 74 29.94 0.0
05 01:35 W 3 0.00 NULL NULL 75.2 73.4 94% 74 29.96 0.0
05 01:15 SW 5 0.00 NULL NULL 75.2 73.4 94% 74 29.95 0.0
05 00:55 SW 5 0.00 NULL NULL 75.2 73.4 94% 74 29.97 0.0
05 00:35 SW 3 0.00 NULL NULL 75.2 73.4 94% 74 29.97 0.0
05 00:15 SW 3 0.00 NULL NULL 75.2 75.2 100% 73 29.98 0.0
04 23:55 SW 3 0.00 NULL NULL 77 75.2 94% 78 29.98 0.0
04 23:35 SW 3 0.00 NULL NULL 77 75.2 94% 78 29.99 0.0
04 23:15 SW 5 0.00 NULL NULL 77 77 100% 78 29.99 0.0
04 22:55 SW 3 0.00 NULL NULL 77 77 100% 78 29.99 0.0
04 22:35 SW 6 0.00 NULL NULL 77 77 100% 78 29.99 0.0
04 22:15 SW 6 0.00 NULL NULL 77 77 100% 78 29.99 0.0
04 21:55 Calm 0.00 NULL NULL 77 77 100% 78 29.99 0.0
04 21:35 SW 5 0.00 NULL NULL 77 77 100% 78 29.99 0.0
04 21:10 SW 3 0.00 NULL NULL 77 77 100% 78 29.98 0.0
04 20:55 SW 3 0.00 NULL NULL 78.8 77 94% 83 29.98 0.0
04 20:35 SW 3 0.00 NULL NULL 78.8 78.8 100% 83 29.97 0.0
04 20:15 SW 5 0.00 NULL NULL 80.6 78.8 94% 88 29.97 0.0
04 19:55 S 6 0.00 NULL NULL 80.6 78.8 94% 88 29.97 0.0
04 19:35 S 7 0.00 NULL NULL 80.6 78.8 94% 88 29.96 0.0
04 19:15 S 6 0.00 Fair CLR 82.4 77 84% 91 29.96 0.0
04 18:55 S 8 0.00 Fair CLR 82.4 78.8 89% 92 29.96 0.0
04 18:35 S 7 0.00 Fair CLR 86 77 75% 97 29.96 0.0
04 18:15 SE 7 0.00 Fair CLR 86 75.2 70% 95 29.96 0.0
04 17:55 S 9 0.00 Fair CLR 86 73.4 66% 93 29.97 0.0
04 17:35 S 8 0.00 Fair CLR 87.8 73.4 62% 96 29.96 0.0
04 17:15 S 8 0.00 Fair CLR 87.8 73.4 62% 96 29.96 0.0
04 16:55 S 9 0.00 Fair CLR 87.8 75.2 66% 98 29.97 0.0
04 16:35 S 9 0.00 Fair CLR 87.8 73.4 62% 96 29.97 0.0
04 16:15 S 7 0.00 Fair CLR 89.6 75.2 63% 100 29.98 0.0
04 15:55 S 8 0.00 Partly Cloudy SCT037 89.6 75.2 63% 100 29.99 0.0
04 15:35 SE 8 0.00 Partly Cloudy SCT037 89.6 73.4 59% 98 29.99 0.0
04 15:15 E 9 0.00 Partly Cloudy SCT039 89.6 75.2 63% 100 30 0.0
04 14:55 E 9 0.00 Fair CLR 89.6 73.4 59% 98 30 0.0
04 14:35 E 8 0.00 Fair CLR 91.4 73.4 56% 100 30.01 0.0
04 14:15 S 6 0.00 Fair CLR 89.6 73.4 59% 98 30.01 0.0
04 13:55 S 8 0.00 Partly Cloudy SCT034 89.6 73.4 59% 98 30.02 0.0
04 13:35 SE 7 0.00 Overcast OVC032 89.6 75.2 63% 100 30.02 0.0
04 13:15 S 6 0.00 Overcast OVC032 87.8 75.2 66% 98 30.03 0.0
04 12:55 SE 8 0.00 Overcast BKN032 OVC040 86 75.2 70% 95 30.04 0.0
04 12:35 SE 7 0.00 Mostly Cloudy BKN032 BKN040 87.8 73.4 62% 96 30.04 0.0
04 12:15 SE 7 0.00 Mostly Cloudy SCT032 BKN040 87.8 75.2 66% 98 30.04 0.0
04 11:55 E 7 0.00 Fair CLR 87.8 75.2 66% 98 30.05 0.0
04 11:35 E 6 0.00 Partly Cloudy SCT027 SCT050 87.8 77 70% 100 30.05 0.0
04 11:15 SE 3 0.00 Mostly Cloudy BKN027 BKN032 BKN044 86 77 75% 97 30.05 0.0
04 10:55 Calm 0.00 Mostly Cloudy SCT027 SCT043 BKN055 84.2 77 79% 94 30.05 0.0
04 10:35 SE 3 0.00 Mostly Cloudy SCT023 BKN028 BKN040 87.8 77 70% 100 30.05 0.0
04 10:10 SW 3 0.00 Mostly Cloudy BKN023 BKN031 BKN040 86 78.8 79% 99 30.05 0.0
04 09:55 SW 3 0.00 Mostly Cloudy SCT023 BKN031 84.2 78.8 84% 96 30.05 0.0
04 09:35 Calm 0.00 NULL NULL 82.4 78.8 89% 92 30.04 0.0
04 09:15 Calm 0.00 NULL NULL 82.4 78.8 89% 92 30.04 0.0
04 08:55 Calm 0.00 NULL NULL 82.4 80.6 94% 94 30.05 0.0
04 08:35 Calm 0.00 NULL NULL 80.6 80.6 100% 89 30.05 0.0
04 08:15 Calm 0.00 NULL NULL 78.8 77 94% 83 30.04 0.0
04 07:55 Calm 0.00 NULL NULL 77 75.2 94% 78 30.04 0.0
04 07:35 Calm 0.00 NULL NULL 73.4 73.4 100% 30.04 0.0
04 07:15 Calm 0.00 NULL NULL 73.4 73.4 100% 30.03 0.0
04 06:55 Calm 0.00 NULL NULL 73.4 73.4 100% 30.03 0.0
04 06:35 Calm 0.00 Mostly Cloudy BKN019 BKN024 73.4 73.4 100% 30.03 0.0
04 06:15 Calm 0.00 NULL NULL 73.4 73.4 100% 30.02 0.0
04 05:55 Calm 0.00 NULL NULL 73.4 71.6 94% 30.02 0.0
04 05:35 Calm 0.00 NULL NULL 73.4 73.4 100% 30.01 0.0
04 05:15 Calm 0.00 NULL NULL 73.4 73.4 100% 30.01 0.0
04 04:55 Calm 0.00 NULL NULL 73.4 71.6 94% 30 0.0
04 04:35 Calm 0.00 NULL NULL 73.4 73.4 100% 30 0.0
04 04:15 Calm 0.00 NULL NULL 73.4 71.6 94% 30 0.0
04 03:55 Calm 0.00 NULL NULL 73.4 73.4 100% 30 0.0
04 03:35 Calm 0.00 NULL NULL 73.4 73.4 100% 30 0.0
04 03:15 Calm 0.00 NULL NULL 73.4 73.4 100% 30 0.0
04 02:55 Calm 0.00 NULL NULL 73.4 73.4 100% 30.01 0.0
04 02:35 Calm 0.00 NULL NULL 73.4 73.4 100% 30.01 0.0
04 02:15 Calm 0.00 NULL NULL 75.2 73.4 94% 74 30.02 0.0
04 01:55 Calm 0.00 NULL NULL 75.2 75.2 100% 73 30.03 0.0
04 01:35 Calm 0.00 NULL NULL 75.2 73.4 94% 74 30.04 0.0
04 01:15 Calm 0.00 NULL NULL 75.2 73.4 94% 74 30.04 0.0
04 00:55 Calm 0.00 NULL NULL 75.2 75.2 100% 73 30.05 0.0
04 00:35 Calm 0.00 NULL NULL 77 77 100% 78 30.05 0.0
04 00:15 Calm 0.00 NULL NULL 77 75.2 94% 78 30.05 0.0
03 23:55 Calm 0.00 NULL NULL 75.2 75.2 100% 73 30.05 0.0
03 23:35 Calm 0.00 NULL NULL 77 75.2 94% 78 30.05 0.0
03 23:15 Calm 0.00 NULL NULL 77 75.2 94% 78 30.05 0.0
03 22:55 Calm 0.00 NULL NULL 77 75.2 94% 78 30.06 0.0
03 22:35 Calm 0.00 NULL NULL 77 77 100% 78 30.06 0.0
03 22:15 Calm 0.00 NULL NULL 77 77 100% 78 30.06 0.0
03 21:55 Calm 0.00 NULL NULL 77 77 100% 78 30.05 0.0
03 21:35 Calm 0.00 NULL NULL 77 77 100% 78 30.05 0.0
03 21:15 Calm 0.00 NULL NULL 78.8 77 94% 83 30.04 0.0
03 20:55 Calm 0.00 NULL NULL 78.8 77 94% 83 30.03 0.0
03 20:35 Calm 0.00 NULL NULL 78.8 78.8 100% 83 30.02 0.0
03 20:15 Calm 0.00 NULL NULL 78.8 78.8 100% 83 30.02 0.0
03 19:55 Calm 0.00 NULL NULL 80.6 78.8 94% 88 30.02 0.0
03 19:35 SE 3 0.00 Fair CLR 80.6 77 89% 87 30.01 0.0
03 19:15 SE 5 0.00 Fair CLR 82.4 77 84% 91 30.02 0.0
03 18:35 SE 7 0.00 Partly Cloudy SCT027 82.4 78.8 89% 92 30.02 0.0
03 18:15 SE 7 0.00 Fair CLR 84.2 77 79% 94 30.02 0.0
03 17:55 SE 9 0.00 Fair CLR 86 77 75% 97 30.02 0.0
03 17:35 SE 10 0.00 Fair CLR 86 77 75% 97 30.03 0.0
03 17:15 SE 9 0.00 Fair CLR 86 77 75% 97 30.03 0.0
03 16:55 SE 9 0.00 Fair CLR 86 77 75% 97 30.03 0.0
03 16:35 E 7 0.00 Fair CLR 87.8 77 70% 100 30.03 0.0
03 16:15 E 9 0.00 Fair CLR 87.8 77 70% 100 30.04 0.0
03 15:55 E 8 0.00 Partly Cloudy SCT019 86 77 75% 97 30.04 0.0
03 15:35 E 10 0.00 Partly Cloudy SCT019 87.8 77 70% 100 30.05 0.0
03 15:15 E 10 0.00 Partly Cloudy SCT019 86 77 75% 97 30.05 0.0
03 14:55 E 9 0.00 Fair CLR 87.8 77 70% 100 30.05 0.0
03 14:35 E 10 0.00 Fair CLR 87.8 77 70% 100 30.06 0.0
03 14:15 SE 9 0.00 Fair CLR 87.8 77 70% 100 30.06 0.0
03 13:55 E 9 0.00 Fair CLR 87.8 77 70% 100 30.06 0.0
03 13:35 SE 9 0.00 Fair CLR 87.8 75.2 66% 98 30.07 0.0
03 13:15 SE 9 0.00 Fair CLR 87.8 75.2 66% 98 30.07 0.0
03 12:55 SE 9 0.00 Fair CLR 86 77 75% 97 30.07 0.0
03 12:35 E 9 0.00 Fair CLR 86 77 75% 97 30.08 0.0
03 12:15 SE 8 0.00 Fair CLR 86 77 75% 97 30.08 0.0
03 11:55 SE 9 0.00 Fair CLR 86 77 75% 97 30.08 0.0
03 11:35 E 9 0.00 Partly Cloudy SCT024 87.8 75.2 66% 98 30.08 0.0
03 11:15 S 5 0.00 Partly Cloudy SCT022 86 77 75% 97 30.08 0.0
03 10:55 Calm 0.00 Partly Cloudy SCT022 SCT055 86 75.2 70% 95 30.08 0.0
03 10:35 NE 6 0.00 Partly Cloudy SCT055 86 77 75% 97 30.08 0.0
03 10:15 N 5 0.00 Fair CLR 84.2 77 79% 94 30.07 0.0
03 09:55 NE 3 0.00 Fair CLR 82.4 78.8 89% 92 30.08 0.0
03 09:35 Calm 0.00 Partly Cloudy SCT011 82.4 78.8 89% 92 30.07 0.0
03 09:15 Calm 0.00 NULL NULL 80.6 80.6 100% 89 30.08 0.0
03 08:55 Calm 0.00 NULL NULL 80.6 78.8 94% 88 30.07 0.0
03 08:35 N 3 0.00 NULL NULL 78.8 77 94% 83 30.08 0.0
03 08:15 Calm 0.00 NULL NULL 77 77 100% 78 30.08 0.0
03 07:55 Calm 0.00 NULL NULL 75.2 75.2 100% 73 30.08 0.0
03 07:35 Calm 0.00 NULL NULL 73.4 73.4 100% 30.07 0.0
03 07:15 Calm 0.00 NULL NULL 73.4 71.6 94% 30.06 0.0
03 06:55 Calm 0.00 NULL NULL 71.6 71.6 100% 30.06 0.0
03 06:35 Calm 0.00 NULL NULL 71.6 71.6 100% 30.05 0.0
03 06:15 Calm 0.00 NULL NULL 71.6 71.6 100% 30.05 0.0
03 05:55 Calm 0.00 NULL NULL 71.6 71.6 100% 30.04 0.0
03 05:35 Calm 0.00 Mostly Cloudy BKN060 71.6 71.6 100% 30.04 0.0
03 05:15 Calm 0.00 NULL NULL 71.6 71.6 100% 30.04 0.0
03 04:55 Calm 0.00 NULL NULL 71.6 71.6 100% 30.04 0.0
03 04:35 Calm 0.00 NULL NULL 71.6 71.6 100% 30.04 0.0
03 04:15 Calm 0.00 NULL NULL 71.6 71.6 100% 30.03 0.0
03 03:55 Calm 0.00 NULL NULL 71.6 71.6 100% 30.04 0.0
03 03:35 Calm 0.00 NULL NULL 71.6 71.6 100% 30.03 0.0
03 03:15 Calm 0.00 NULL NULL 71.6 71.6 100% 30.03 0.0
03 02:55 Calm 0.00 NULL NULL 73.4 71.6 94% 30.03 0.0
03 02:35 Calm 0.00 NULL NULL 73.4 71.6 94% 30.03 0.0
03 02:15 Calm 0.00 NULL NULL 73.4 73.4 100% 30.03 0.0
03 01:55 Calm 0.00 NULL NULL 73.4 71.6 94% 30.03 0.0
03 01:35 Calm 0.00 NULL NULL 73.4 73.4 100% 30.03 0.0
03 01:15 Calm 0.00 NULL NULL 73.4 71.6 94% 30.03 0.0
03 00:55 Calm 0.00 NULL NULL 73.4 71.6 94% 30.03 0.0
03 00:35 Calm 0.00 NULL NULL 73.4 73.4 100% 30.03 0.0
03 00:15 SW 3 0.00 NULL NULL 73.4 73.4 100% 30.03 0.0
02 23:55 Calm 0.00 NULL NULL 73.4 73.4 100% 30.04 0.0
Date Time (edt) Wind (mph) Vis. (mi.) Weather Sky Cond. Air Dwpt Max. Min. Relative Humidity Wind Chill (°F) Heat Index (°F) altimeter (in) sea level (mb) 1 hr 3 hr 6 hr
6 hour
Temperature (ºF) Pressure Precipitation (in)